METAR Data
IDs: Format: Raw Decoded Include TAF

Data at: 0617 UTC 24 Sep 2018

KTCS 240553Z AUTO 29005KT 10SM CLR 18/03 A3007 RMK AO2 SLP107 T01830028 10272 20183 51003 $
KTCS 240453Z AUTO 26006KT 10SM CLR 20/04 A3006 RMK AO2 SLP106 T02000039 $
KTCS 240353Z AUTO 26006KT 10SM CLR 21/06 A3006 RMK AO2 SLP105 T02110056 $
KTCS 240253Z AUTO 21004KT 10SM CLR 22/04 A3006 RMK AO2 SLP107 T02220039 53005 $
KTCS 240153Z AUTO 19003KT 10SM CLR 23/04 A3004 RMK AO2 SLP105 T02330044 $
KTCS 240053Z AUTO 19006KT 10SM CLR 26/02 A3004 RMK AO2 SLP100 T02610022 $
KTCS 232353Z AUTO VRB03KT 10SM CLR 27/M01 A3004 RMK AO2 SLP100 T02721006 10283 20239 56016 $
KTCS 232253Z AUTO VRB03KT 10SM CLR 28/M01 A3005 RMK AO2 SLP100 T02781006 $
KTCS 232153Z AUTO VRB03KT 10SM CLR 27/M03 A3007 RMK AO2 SLP110 T02721033 $
KTCS 232053Z AUTO 08004KT 10SM CLR 27/M02 A3009 RMK AO2 SLP116 T02671022 58026 $
KTCS 231953Z AUTO 00000KT 10SM CLR 26/02 A3013 RMK AO2 SLP128 T02610017 $
KTCS 231853Z AUTO 17006KT 10SM CLR 25/03 A3016 RMK AO2 SLP141 T02500033 $
KTCS 231753Z AUTO 18005KT 10SM CLR 24/06 A3018 RMK AO2 SLP146 T02390061 10239 20128 58005 $
KTCS 231653Z AUTO 18006KT 10SM CLR 22/08 A3020 RMK AO2 SLP159 T02220078 $
KTCS 231553Z AUTO 00000KT 10SM CLR 21/07 A3021 RMK AO2 SLP158 T02060067 $
KTCS 231453Z AUTO 28005KT 10SM CLR 18/07 A3020 RMK AO2 SLP155 T01780067 $
KTCS 231353Z AUTO 28007KT 10SM 14/07 A3019 RMK AO2 SLP156 T01440067 $
KTCS 231253Z AUTO 28008KT 10SM CLR 13/07 A3018 RMK AO2 SLP152 T01330072 $
KTCS 231153Z AUTO 29006KT 10SM CLR 13/07 A3018 RMK AO2 SLP149 T01330067 10178 20133 55002 $
KTCS 231053Z AUTO 29006KT 10SM CLR 14/07 A3017 RMK AO2 SLP146 T01390072 $
KTCS 230953Z AUTO 30006KT 10SM CLR 14/08 A3017 RMK AO2 SLP146 T01390083 $
KTCS 230853Z AUTO 28006KT 10SM CLR 15/08 A3018 RMK AO2 SLP150 T01500083 58002 $
KTCS 230753Z AUTO 29005KT 10SM CLR 16/08 A3019 RMK AO2 SLP154 T01560083 $
KTCS 230653Z AUTO 28005KT 10SM CLR 16/09 A3019 RMK AO2 SLP154 T01610089 402780150 $
KTCS 230553Z AUTO 29003KT 10SM CLR 18/07 A3019 RMK AO2 SLP154 T01780072 10267 20178 50005 $
KTCS 230453Z AUTO 11004KT 10SM CLR 18/08 A3019 RMK AO2 SLP155 T01830078 $
KTCS 230353Z AUTO 27004KT 10SM CLR 21/07 A3018 RMK AO2 SLP150 T02060072 $
KTCS 230253Z AUTO 00000KT 10SM CLR 23/06 A3017 RMK AO2 SLP146 T02280056 53004 $
KTCS 230153Z AUTO 00000KT 10SM CLR 24/04 A3016 RMK AO2 SLP142 T02390044 $
KTCS 230053Z AUTO 00000KT 10SM CLR 25/03 A3016 RMK AO2 SLP142 T02500028 $
KTCS 222353Z AUTO 20006KT 10SM CLR 27/01 A3016 RMK AO2 SLP138 T02670006 10278 20222 56015 $
KTCS 222253Z AUTO 10005KT 10SM CLR 27/00 A3016 RMK AO2 SLP137 T02720000 $
KTCS 222153Z AUTO 00000KT 10SM CLR 27/03 A3018 RMK AO2 SLP141 T02720028 $
KTCS 222053Z AUTO 00000KT 10SM CLR 26/06 A3020 RMK AO2 SLP153 T02610061 58027 $
KTCS 221953Z AUTO 08003KT 10SM CLR 25/07 A3024 RMK AO2 SLP166 T02500067 $
KTCS 221853Z AUTO 36004KT 10SM CLR 24/09 A3027 RMK AO2 SLP177 T02390089 $